Wes Sellars — WDF9302 — position and weather

sailwx.info

Track history (hours):
 
Tides and Currents Weather Stations Pressure Air Temp Water Temp Dewpoint Dewpoint Depression Visibility Wind Speed Wind Dir Waves Ship Positions

Wes Sellars

Owner: Florida Marine, LLC, Mandeville, LA. More information available from US FCC via Universal Licensing System and Coast Guard Vessel Documentation Center.

Last reported at 2016-May-01 21:24 UTC. Time now 2016-May-03 06:48 UTC.
Position N 29°23' W 094°46'.

Length 27 m.

Type: Towing. MMSI: 367503760.

Date/timePositionNaut miles runAvg speedWind from/ knotsBaromVisibWave heightAir tempDewpointWater temp
2016-May-01 21:24N 29°23' W 094°46'62 5.1
2016-May-01 09:14N 29°59' W 093°48'6 7.9
2016-May-01 08:31N 30°03' W 093°43'6 5.9
2016-May-01 07:33N 30°04' W 093°37'5 5.4
2016-May-01 06:33N 30°04' W 093°31'5 5.3
2016-May-01 05:33N 30°04' W 093°25'4 3.7
2016-May-01 04:33N 30°04' W 093°20'2 2.1
2016-May-01 03:33N 30°06' W 093°19'0 0.0
2016-May-01 02:33N 30°06' W 093°19'0 0.0
2016-May-01 01:33N 30°06' W 093°19'2 0.2
2016-Apr-30 13:33N 30°08' W 093°19'0 0.0
2016-Apr-30 12:33N 30°08' W 093°19'0 0.0
2016-Apr-30 11:33N 30°08' W 093°19'0 0.0
2016-Apr-30 10:33N 30°08' W 093°19'0 0.0
2016-Apr-30 09:33N 30°08' W 093°19'0 0.0
2016-Apr-30 08:33N 30°08' W 093°19'0 0.0
2016-Apr-30 07:33N 30°08' W 093°19'0 0.0
2016-Apr-30 06:33N 30°08' W 093°19'0 0.0
2016-Apr-30 05:32N 30°08' W 093°19'0 0.0
2016-Apr-30 04:32N 30°08' W 093°19'0 0.1
2016-Apr-30 03:33N 30°08' W 093°19'0 0.0
2016-Apr-30 02:33N 30°08' W 093°19'0 0.0
2016-Apr-30 01:30N 30°08' W 093°19'1 1.5
2016-Apr-30 00:33N 30°07' W 093°20'5 4.3
2016-Apr-29 23:30N 30°04' W 093°24'6 6.0
2016-Apr-29 22:28N 30°04' W 093°31'6 6.8
2016-Apr-29 21:33N 30°04' W 093°38'15 6.9
2016-Apr-29 19:25N 29°56' W 093°53'8 6.2
2016-Apr-29 18:04N 29°49' W 093°59'38 5.1
2016-Apr-29 10:32N 29°29' W 094°36'13 6.1
2016-Apr-29 08:20N 29°22' W 094°49'5 5.9
2016-Apr-29 07:32N 29°22' W 094°55'1 0.3
2016-Apr-29 03:20N 29°23' W 094°53'0 0.0
2016-Apr-29 02:33N 29°23' W 094°53'0 0.0
2016-Apr-29 01:32N 29°23' W 094°53'0 0.0
2016-Apr-29 00:32N 29°23' W 094°53'0 0.0
2016-Apr-28 23:33N 29°23' W 094°53'0 0.0
2016-Apr-28 22:33N 29°23' W 094°53'0 0.0
2016-Apr-28 21:29N 29°23' W 094°53'0 0.0
2016-Apr-28 13:24N 29°23' W 094°53'0 0.0
2016-Apr-28 12:03N 29°23' W 094°53'0 0.0
2016-Apr-28 09:31N 29°23' W 094°53'0 0.0
2016-Apr-28 08:28N 29°23' W 094°53'1 0.1
2016-Apr-28 03:33N 29°23' W 094°53'4 0.5
2016-Apr-27 20:32N 29°21' W 094°49'0 0.0
2016-Apr-27 18:21N 29°21' W 094°49'0 0.0
2016-Apr-27 17:29N 29°21' W 094°49'0 0.0
2016-Apr-27 16:32N 29°21' W 094°49'0 0.0
2016-Apr-27 15:25N 29°21' W 094°49'0 0.0
2016-Apr-27 12:23N 29°21' W 094°49'0 0.0
2016-Apr-27 06:27N 29°21' W 094°49'0 0.0
2016-Apr-26 23:15N 29°21' W 094°49'0 0.1
2016-Apr-26 21:32N 29°21' W 094°49'5 4.9
2016-Apr-26 20:33N 29°26' W 094°50'6 6.3
2016-Apr-26 19:33N 29°31' W 094°53'6 6.4
2016-Apr-26 18:33N 29°37' W 094°57'6 6.0
2016-Apr-26 17:33N 29°42' W 095°00'5 5.1
2016-Apr-26 16:33N 29°46' W 095°04'1 0.8
2016-Apr-26 15:33N 29°46' W 095°05'0 0.3
2016-Apr-26 14:29N 29°47' W 095°05'0 0.5
2016-Apr-26 13:33N 29°47' W 095°04'0 0.0
2016-Apr-26 12:33N 29°47' W 095°04'0 0.0
2016-Apr-26 11:33N 29°47' W 095°04'0 0.0
2016-Apr-26 10:33N 29°47' W 095°04'0 0.0
2016-Apr-26 09:33N 29°47' W 095°04'0 0.0
2016-Apr-26 08:33N 29°47' W 095°04'0 0.0
2016-Apr-26 07:33N 29°47' W 095°04'0 0.0
2016-Apr-26 06:33N 29°47' W 095°04'0 0.0
2016-Apr-26 05:34N 29°47' W 095°04'3 2.8
2016-Apr-26 04:33N 29°45' W 095°06'6 0.2
2016-Apr-25 03:06N 29°44' W 095°12'4 6.4
2016-Apr-25 02:29N 29°44' W 095°08'4 4.0
2016-Apr-25 01:33N 29°47' W 095°05'0 0.0
2016-Apr-23 23:31N 29°47' W 095°05'4 3.7
2016-Apr-23 22:33N 29°44' W 095°08'0 0.2
2016-Apr-23 21:33N 29°44' W 095°08'0 0.0
2016-Apr-23 20:33N 29°44' W 095°08'4 4.2
2016-Apr-23 19:33N 29°47' W 095°04'1 0.9
2016-Apr-23 18:07N 29°47' W 095°06'0 0.0
2016-Apr-23 14:31N 29°47' W 095°06'0 0.0
2016-Apr-23 13:33N 29°47' W 095°06'0 0.0
2016-Apr-23 12:34N 29°47' W 095°06'0 0.0
2016-Apr-23 11:33N 29°47' W 095°06'0 0.0
2016-Apr-23 10:33N 29°47' W 095°06'0 0.0
2016-Apr-23 09:33N 29°47' W 095°06'0 0.0
2016-Apr-23 08:32N 29°47' W 095°06'0 0.0
2016-Apr-23 07:15N 29°47' W 095°06'0 0.0
2016-Apr-23 06:25N 29°47' W 095°06'0 0.0
2016-Apr-23 02:10N 29°47' W 095°06'0 0.1
2016-Apr-23 01:32N 29°47' W 095°06'0 0.0
2016-Apr-23 00:19N 29°47' W 095°06'0 0.0
2016-Apr-22 19:33N 29°47' W 095°06'0 0.2
2016-Apr-22 18:33N 29°47' W 095°06'0 0.0
2016-Apr-22 17:33N 29°47' W 095°06'0 0.1
2016-Apr-22 15:24N 29°47' W 095°06'0 0.0
2016-Apr-22 14:32N 29°47' W 095°06'0 0.0
2016-Apr-22 13:32N 29°47' W 095°06'0 0.0
2016-Apr-22 12:33N 29°47' W 095°06'0 0.0
2016-Apr-22 05:28N 29°47' W 095°06'0 0.0
2016-Apr-21 22:23N 29°47' W 095°06'0 0.0
2016-Apr-21 21:33N 29°47' W 095°06'  
Track history (hours):
 
Tides and Currents Weather Stations Pressure Air Temp Water Temp Dewpoint Dewpoint Depression Visibility Wind Speed Wind Dir Waves Ship Positions

Wes Sellars

Owner: Florida Marine, LLC, Mandeville, LA. More information available from US FCC via Universal Licensing System and Coast Guard Vessel Documentation Center.

Last reported at 2016-May-01 21:24 UTC. Time now 2016-May-03 06:48 UTC.
Position N 29°23' W 094°46'.

Length 27 m.

Type: Towing. MMSI: 367503760.

Date/timePositionNaut miles runAvg speedWind from/ knotsBaromVisibWave heightAir tempDewpointWater temp
2016-May-01 21:24N 29°23' W 094°46'62 5.1
2016-May-01 09:14N 29°59' W 093°48'6 7.9
2016-May-01 08:31N 30°03' W 093°43'6 5.9
2016-May-01 07:33N 30°04' W 093°37'5 5.4
2016-May-01 06:33N 30°04' W 093°31'5 5.3
2016-May-01 05:33N 30°04' W 093°25'4 3.7
2016-May-01 04:33N 30°04' W 093°20'2 2.1
2016-May-01 03:33N 30°06' W 093°19'0 0.0
2016-May-01 02:33N 30°06' W 093°19'0 0.0
2016-May-01 01:33N 30°06' W 093°19'2 0.2
2016-Apr-30 13:33N 30°08' W 093°19'0 0.0
2016-Apr-30 12:33N 30°08' W 093°19'0 0.0
2016-Apr-30 11:33N 30°08' W 093°19'0 0.0
2016-Apr-30 10:33N 30°08' W 093°19'0 0.0
2016-Apr-30 09:33N 30°08' W 093°19'0 0.0
2016-Apr-30 08:33N 30°08' W 093°19'0 0.0
2016-Apr-30 07:33N 30°08' W 093°19'0 0.0
2016-Apr-30 06:33N 30°08' W 093°19'0 0.0
2016-Apr-30 05:32N 30°08' W 093°19'0 0.0
2016-Apr-30 04:32N 30°08' W 093°19'0 0.1
2016-Apr-30 03:33N 30°08' W 093°19'0 0.0
2016-Apr-30 02:33N 30°08' W 093°19'0 0.0
2016-Apr-30 01:30N 30°08' W 093°19'1 1.5
2016-Apr-30 00:33N 30°07' W 093°20'5 4.3
2016-Apr-29 23:30N 30°04' W 093°24'6 6.0
2016-Apr-29 22:28N 30°04' W 093°31'6 6.8
2016-Apr-29 21:33N 30°04' W 093°38'15 6.9
2016-Apr-29 19:25N 29°56' W 093°53'8 6.2
2016-Apr-29 18:04N 29°49' W 093°59'38 5.1
2016-Apr-29 10:32N 29°29' W 094°36'13 6.1
2016-Apr-29 08:20N 29°22' W 094°49'5 5.9
2016-Apr-29 07:32N 29°22' W 094°55'1 0.3
2016-Apr-29 03:20N 29°23' W 094°53'0 0.0
2016-Apr-29 02:33N 29°23' W 094°53'0 0.0
2016-Apr-29 01:32N 29°23' W 094°53'0 0.0
2016-Apr-29 00:32N 29°23' W 094°53'0 0.0
2016-Apr-28 23:33N 29°23' W 094°53'0 0.0
2016-Apr-28 22:33N 29°23' W 094°53'0 0.0
2016-Apr-28 21:29N 29°23' W 094°53'0 0.0
2016-Apr-28 13:24N 29°23' W 094°53'0 0.0
2016-Apr-28 12:03N 29°23' W 094°53'0 0.0
2016-Apr-28 09:31N 29°23' W 094°53'0 0.0
2016-Apr-28 08:28N 29°23' W 094°53'1 0.1
2016-Apr-28 03:33N 29°23' W 094°53'4 0.5
2016-Apr-27 20:32N 29°21' W 094°49'0 0.0
2016-Apr-27 18:21N 29°21' W 094°49'0 0.0
2016-Apr-27 17:29N 29°21' W 094°49'0 0.0
2016-Apr-27 16:32N 29°21' W 094°49'0 0.0
2016-Apr-27 15:25N 29°21' W 094°49'0 0.0
2016-Apr-27 12:23N 29°21' W 094°49'0 0.0
2016-Apr-27 06:27N 29°21' W 094°49'0 0.0
2016-Apr-26 23:15N 29°21' W 094°49'0 0.1
2016-Apr-26 21:32N 29°21' W 094°49'5 4.9
2016-Apr-26 20:33N 29°26' W 094°50'6 6.3
2016-Apr-26 19:33N 29°31' W 094°53'6 6.4
2016-Apr-26 18:33N 29°37' W 094°57'6 6.0
2016-Apr-26 17:33N 29°42' W 095°00'5 5.1
2016-Apr-26 16:33N 29°46' W 095°04'1 0.8
2016-Apr-26 15:33N 29°46' W 095°05'0 0.3
2016-Apr-26 14:29N 29°47' W 095°05'0 0.5
2016-Apr-26 13:33N 29°47' W 095°04'0 0.0
2016-Apr-26 12:33N 29°47' W 095°04'0 0.0
2016-Apr-26 11:33N 29°47' W 095°04'0 0.0
2016-Apr-26 10:33N 29°47' W 095°04'0 0.0
2016-Apr-26 09:33N 29°47' W 095°04'0 0.0
2016-Apr-26 08:33N 29°47' W 095°04'0 0.0
2016-Apr-26 07:33N 29°47' W 095°04'0 0.0
2016-Apr-26 06:33N 29°47' W 095°04'0 0.0
2016-Apr-26 05:34N 29°47' W 095°04'3 2.8
2016-Apr-26 04:33N 29°45' W 095°06'6 0.2
2016-Apr-25 03:06N 29°44' W 095°12'4 6.4
2016-Apr-25 02:29N 29°44' W 095°08'4 4.0
2016-Apr-25 01:33N 29°47' W 095°05'0 0.0
2016-Apr-23 23:31N 29°47' W 095°05'4 3.7
2016-Apr-23 22:33N 29°44' W 095°08'0 0.2
2016-Apr-23 21:33N 29°44' W 095°08'0 0.0
2016-Apr-23 20:33N 29°44' W 095°08'4 4.2
2016-Apr-23 19:33N 29°47' W 095°04'1 0.9
2016-Apr-23 18:07N 29°47' W 095°06'0 0.0
2016-Apr-23 14:31N 29°47' W 095°06'0 0.0
2016-Apr-23 13:33N 29°47' W 095°06'0 0.0
2016-Apr-23 12:34N 29°47' W 095°06'0 0.0
2016-Apr-23 11:33N 29°47' W 095°06'0 0.0
2016-Apr-23 10:33N 29°47' W 095°06'0 0.0
2016-Apr-23 09:33N 29°47' W 095°06'0 0.0
2016-Apr-23 08:32N 29°47' W 095°06'0 0.0
2016-Apr-23 07:15N 29°47' W 095°06'0 0.0
2016-Apr-23 06:25N 29°47' W 095°06'0 0.0
2016-Apr-23 02:10N 29°47' W 095°06'0 0.1
2016-Apr-23 01:32N 29°47' W 095°06'0 0.0
2016-Apr-23 00:19N 29°47' W 095°06'0 0.0
2016-Apr-22 19:33N 29°47' W 095°06'0 0.2
2016-Apr-22 18:33N 29°47' W 095°06'0 0.0
2016-Apr-22 17:33N 29°47' W 095°06'0 0.1
2016-Apr-22 15:24N 29°47' W 095°06'0 0.0
2016-Apr-22 14:32N 29°47' W 095°06'0 0.0
2016-Apr-22 13:32N 29°47' W 095°06'0 0.0
2016-Apr-22 12:33N 29°47' W 095°06'0 0.0
2016-Apr-22 05:28N 29°47' W 095°06'0 0.0
2016-Apr-21 22:23N 29°47' W 095°06'0 0.0
2016-Apr-21 21:33N 29°47' W 095°06'  

Dump ship's entire track history